createdAt,value
2022-10-18T00:00:08.037Z,4.82
2022-10-18T00:05:07.812Z,4.97
2022-10-18T00:10:08.544Z,4.82
2022-10-18T00:15:08.271Z,4.93
2022-10-18T00:20:08.022Z,5.22
2022-10-18T00:25:07.745Z,4.47
2022-10-18T00:30:08.553Z,5.22
2022-10-18T00:35:08.292Z,4.93
2022-10-18T00:40:07.973Z,5.57
2022-10-18T00:45:07.689Z,4.35
2022-10-18T00:50:08.419Z,4.47
2022-10-18T00:55:08.126Z,4.97
2022-10-18T01:00:07.817Z,5.32
2022-10-18T01:05:08.514Z,4.97
2022-10-18T01:10:08.175Z,8.00
2022-10-18T01:15:07.882Z,4.95
2022-10-18T01:20:08.567Z,9.15
2022-10-18T01:25:18.231Z,0
2022-10-18T01:30:07.959Z,4.55
2022-10-18T01:35:07.737Z,5.28
2022-10-18T01:40:08.469Z,3.55
2022-10-18T01:45:08.166Z,3.22
2022-10-18T01:50:07.874Z,2.97
2022-10-18T01:55:08.595Z,3.30
2022-10-18T02:00:08.289Z,3.33
2022-10-18T02:05:08.028Z,4.50
2022-10-18T02:15:13.625Z,3.40
2022-10-18T02:20:08.547Z,3.88
2022-10-18T02:25:08.226Z,3.88
2022-10-18T02:30:07.927Z,4.10
2022-10-18T02:35:18.606Z,0
2022-10-18T02:40:08.319Z,4.13
2022-10-18T02:45:08.021Z,3.90
2022-10-18T02:50:08.503Z,3.70
2022-10-18T02:55:08.179Z,4.15
2022-10-18T03:00:07.889Z,4.07
2022-10-18T03:05:08.569Z,4.90
2022-10-18T03:10:08.285Z,4.68
2022-10-18T03:15:07.984Z,5.28
2022-10-18T03:20:07.679Z,4.00
2022-10-18T03:25:08.366Z,4.45
2022-10-18T03:30:08.030Z,4.72
2022-10-18T03:35:07.736Z,4.47
2022-10-18T03:40:08.456Z,4.32
2022-10-18T03:45:08.168Z,4.65
2022-10-18T03:50:07.871Z,4.40
2022-10-18T03:55:08.745Z,4.88
2022-10-18T04:00:08.495Z,5.28
2022-10-18T04:05:02.217Z,5.50
2022-10-18T04:10:01.965Z,4.43
2022-10-18T04:15:01.763Z,5.25
2022-10-18T04:20:02.548Z,4.43
2022-10-18T04:25:02.239Z,5.00
2022-10-18T04:30:02.527Z,4.35
2022-10-18T04:35:02.329Z,4.47
2022-10-18T04:40:02.172Z,4.68
2022-10-18T04:45:02.008Z,4.75
2022-10-18T04:50:01.813Z,5.10
2022-10-18T04:55:02.564Z,5.03
2022-10-18T05:00:02.288Z,5.28
2022-10-18T05:05:02.019Z,5.82
2022-10-18T05:10:01.911Z,5.40
2022-10-18T05:15:02.701Z,6.40
2022-10-18T05:20:02.621Z,9.30
2022-10-18T05:25:02.456Z,8.73
2022-10-18T05:30:05.355Z,9.88
2022-10-18T05:35:02.636Z,10.50
2022-10-18T05:40:02.444Z,10.85
2022-10-18T05:45:02.284Z,10.38
2022-10-18T05:50:03.862Z,9.57
2022-10-18T05:55:02.770Z,10.13
2022-10-18T06:00:02.710Z,11.43
2022-10-18T06:05:02.844Z,11.35
2022-10-18T06:10:02.772Z,9.93
2022-10-18T06:15:02.673Z,11.10
2022-10-18T06:20:02.405Z,14.93
2022-10-18T06:25:02.345Z,11.98
2022-10-18T06:30:02.161Z,10.27
2022-10-18T06:35:01.987Z,9.52
2022-10-18T06:40:01.718Z,9.20
2022-10-18T06:45:02.463Z,8.18
2022-10-18T06:50:02.293Z,8.88
2022-10-18T06:55:04.232Z,12.57
2022-10-18T07:00:01.953Z,10.13
2022-10-18T07:05:01.795Z,13.02
2022-10-18T07:10:02.659Z,11.60
2022-10-18T07:15:05.608Z,18.00
2022-10-18T07:20:02.121Z,16.73
2022-10-18T07:25:02.083Z,21.67
2022-10-18T07:30:01.870Z,13.30
2022-10-18T07:35:02.683Z,13.82
2022-10-18T07:40:02.529Z,16.42
2022-10-18T07:45:02.559Z,18.85
2022-10-18T07:50:02.330Z,22.25
2022-10-18T07:55:02.112Z,23.63
2022-10-18T08:00:02.104Z,25.02
2022-10-18T08:05:01.895Z,23.15
2022-10-18T08:10:02.874Z,19.40
2022-10-18T08:15:02.785Z,17.15
2022-10-18T08:20:19.028Z,28.42
2022-10-18T08:25:02.452Z,22.75
2022-10-18T08:30:02.258Z,19.75
2022-10-18T08:35:04.320Z,24.02
2022-10-18T08:40:02.848Z,20.83
2022-10-18T08:45:08.290Z,25.05
2022-10-18T08:50:02.310Z,22.58
2022-10-18T08:55:02.225Z,15.65
2022-10-18T09:00:02.297Z,18.98
2022-10-18T09:05:02.533Z,16.25
2022-10-18T09:10:02.304Z,20.55
2022-10-18T09:15:02.148Z,21.08
2022-10-18T09:20:11.966Z,0
2022-10-18T09:25:01.803Z,25.13
2022-10-18T09:30:02.580Z,19.10
2022-10-18T09:35:02.388Z,25.95
2022-10-18T09:40:02.218Z,28.15
2022-10-18T09:45:02.018Z,16.88
2022-10-18T09:50:01.764Z,11.45
2022-10-18T09:55:02.699Z,13.70
2022-10-18T10:00:02.467Z,16.08
2022-10-18T10:05:02.327Z,13.27
2022-10-18T10:10:02.305Z,6.45
2022-10-18T10:15:02.501Z,13.70
2022-10-18T10:20:02.365Z,13.45
2022-10-18T10:25:02.203Z,11.70
2022-10-18T10:30:06.782Z,18.23
2022-10-18T10:35:02.146Z,7.22
2022-10-18T10:40:18.233Z,11.80
2022-10-18T10:45:02.620Z,7.38
2022-10-18T10:50:02.464Z,7.35
2022-10-18T10:55:11.384Z,6.10
2022-10-18T11:00:01.987Z,5.15
2022-10-18T11:05:02.017Z,5.40
2022-10-18T11:10:01.895Z,6.28
2022-10-18T11:15:02.820Z,8.18
2022-10-18T11:20:02.779Z,4.10
2022-10-18T11:25:02.798Z,5.45
2022-10-18T11:30:02.764Z,2.15
2022-10-18T11:35:02.636Z,6.93
2022-10-18T11:40:02.611Z,5.78
2022-10-18T11:45:02.657Z,4.65
2022-10-18T11:50:02.577Z,4.57
2022-10-18T11:55:02.410Z,4.80
2022-10-18T12:00:07.835Z,3.22
2022-10-18T12:05:22.704Z,4.70
2022-10-18T12:10:02.580Z,2.40
2022-10-18T12:15:02.315Z,5.80
2022-10-18T12:20:02.137Z,3.78
2022-10-18T12:25:01.974Z,6.20
2022-10-18T12:30:01.809Z,3.38
2022-10-18T12:35:02.656Z,3.38
2022-10-18T12:40:11.080Z,2.92
2022-10-18T12:45:12.280Z,0
2022-10-18T12:50:02.121Z,3.80
2022-10-18T12:55:01.871Z,4.07
2022-10-18T13:00:02.628Z,5.32
2022-10-18T13:05:02.721Z,3.75
2022-10-18T13:10:02.472Z,2.45
2022-10-18T13:15:20.540Z,3.85
2022-10-18T13:20:25.719Z,3.58
2022-10-18T13:25:02.078Z,3.20
2022-10-18T13:30:01.902Z,4.93
2022-10-18T13:35:02.638Z,1.80
2022-10-18T13:40:02.473Z,3.45
2022-10-18T13:45:02.573Z,4.25
2022-10-18T13:50:02.441Z,2.80
2022-10-18T13:55:02.341Z,3.42
2022-10-18T14:00:02.215Z,3.22
2022-10-18T14:05:17.011Z,4.05
2022-10-18T14:10:04.300Z,3.88
2022-10-18T14:15:02.399Z,3.53
2022-10-18T14:20:02.478Z,2.50
2022-10-18T14:25:02.464Z,2.45
2022-10-18T14:30:02.443Z,5.03
2022-10-18T14:35:27.566Z,3.80
2022-10-18T14:40:02.823Z,4.85
2022-10-18T14:45:02.734Z,3.03
2022-10-18T14:50:02.689Z,4.35
2022-10-18T14:55:02.625Z,3.17
2022-10-18T15:00:02.478Z,4.28
2022-10-18T15:05:02.352Z,2.80
2022-10-18T15:10:02.264Z,4.55
2022-10-18T15:15:02.186Z,1.67
2022-10-18T15:20:05.205Z,2.47
2022-10-18T15:25:02.150Z,3.70
2022-10-18T15:30:01.968Z,3.03
2022-10-18T15:35:02.148Z,3.00
2022-10-18T15:40:01.921Z,2.83
2022-10-18T15:45:02.779Z,1.17
2022-10-18T15:50:02.509Z,1.83
2022-10-18T15:55:02.331Z,3.25
2022-10-18T16:00:02.237Z,1.27
2022-10-18T16:05:02.083Z,2.75
2022-10-18T16:10:01.927Z,2.03
2022-10-18T16:15:02.680Z,3.38
2022-10-18T16:20:02.512Z,4.10
2022-10-18T16:25:02.329Z,2.90
2022-10-18T16:30:04.174Z,2.22
2022-10-18T16:35:01.965Z,4.70
2022-10-18T16:40:01.913Z,4.40
2022-10-18T16:45:02.867Z,3.40
2022-10-18T16:50:06.513Z,3.90
2022-10-18T16:55:01.817Z,2.08
2022-10-18T17:00:02.706Z,2.33
2022-10-18T17:05:02.608Z,3.53
2022-10-18T17:10:03.337Z,1.15
2022-10-18T17:15:02.275Z,5.53
2022-10-18T17:20:02.097Z,2.35
2022-10-18T17:25:02.230Z,5.03
2022-10-18T17:30:02.075Z,2.22
2022-10-18T17:35:01.885Z,1.70
2022-10-18T17:40:02.654Z,2.90
2022-10-18T17:45:02.569Z,2.35
2022-10-18T17:50:02.393Z,3.53
2022-10-18T17:55:02.224Z,2.38
2022-10-18T18:00:02.118Z,8.52
2022-10-18T18:05:01.919Z,2.65
2022-10-18T18:10:02.746Z,4.30
2022-10-18T18:15:02.659Z,1.38
2022-10-18T18:20:02.485Z,3.08
2022-10-18T18:25:02.231Z,5.10
2022-10-18T18:30:02.316Z,2.25
2022-10-18T18:35:02.126Z,7.25
2022-10-18T18:40:02.083Z,3.35
2022-10-18T18:45:01.829Z,2.85
2022-10-18T18:50:02.684Z,2.88
2022-10-18T18:55:02.527Z,4.45
2022-10-18T19:00:02.344Z,4.25
2022-10-18T19:05:02.185Z,2.70
2022-10-18T19:10:01.970Z,2.95
2022-10-18T19:15:01.726Z,4.00
2022-10-18T19:20:02.700Z,3.83
2022-10-18T19:25:02.598Z,5.03
2022-10-18T19:30:02.476Z,4.40
2022-10-18T19:35:02.371Z,2.60
2022-10-18T19:40:02.317Z,3.83
2022-10-18T19:45:02.233Z,4.70
2022-10-18T19:50:02.185Z,5.88
2022-10-18T19:55:02.086Z,3.42
2022-10-18T20:00:03.467Z,4.10
2022-10-18T20:05:02.248Z,3.28
2022-10-18T20:10:01.983Z,4.20
2022-10-18T20:15:01.822Z,6.13
2022-10-18T20:20:02.567Z,3.78
2022-10-18T20:25:02.464Z,5.57
2022-10-18T20:30:03.713Z,3.78
2022-10-18T20:35:08.070Z,3.13
2022-10-18T20:40:07.789Z,3.55
2022-10-18T20:45:08.640Z,4.07
2022-10-18T20:50:08.468Z,2.60
2022-10-18T20:55:08.215Z,3.00
2022-10-18T21:00:07.899Z,3.15
2022-10-18T21:05:08.589Z,4.97
2022-10-18T21:10:08.285Z,2.33
2022-10-18T21:15:07.989Z,2.13
2022-10-18T21:20:07.713Z,5.65
2022-10-18T21:25:08.468Z,2.10
2022-10-18T21:30:08.245Z,3.92
2022-10-18T21:35:07.972Z,3.28
2022-10-18T21:40:07.692Z,2.70
2022-10-18T21:45:08.430Z,2.40
2022-10-18T21:50:08.166Z,3.95
2022-10-18T21:55:07.892Z,6.63
2022-10-18T22:00:08.615Z,4.22
2022-10-18T22:05:11.241Z,5.13
2022-10-18T22:10:07.936Z,5.88
2022-10-18T22:15:08.629Z,2.88
2022-10-18T22:20:08.371Z,5.85
2022-10-18T22:25:08.157Z,6.40
2022-10-18T22:30:07.884Z,5.28
2022-10-18T22:35:08.594Z,4.28
2022-10-18T22:40:08.287Z,3.25
2022-10-18T22:45:08.038Z,3.85
2022-10-18T22:50:07.781Z,3.17
2022-10-18T22:55:08.523Z,5.35
2022-10-18T23:01:02.279Z,4.57
2022-10-18T23:05:08.682Z,4.45
2022-10-18T23:10:08.541Z,4.10
2022-10-18T23:15:08.275Z,4.07
2022-10-18T23:20:07.982Z,3.50
2022-10-18T23:25:07.710Z,3.20
2022-10-18T23:30:08.417Z,2.58
2022-10-18T23:35:08.129Z,5.53
2022-10-18T23:40:07.860Z,2.08
2022-10-18T23:45:08.554Z,3.72
2022-10-18T23:50:08.267Z,2.35
2022-10-18T23:55:07.947Z,4.03
